createdAt,value
2018-12-15T00:01:19.351Z,8.80
2018-12-15T00:03:52.212Z,8.80
2018-12-15T00:06:24.873Z,8.80
2018-12-15T00:08:55.534Z,8.80
2018-12-15T00:11:26.180Z,8.80
2018-12-15T00:13:56.801Z,8.90
2018-12-15T00:16:27.641Z,8.90
2018-12-15T00:18:58.397Z,8.90
2018-12-15T00:21:28.923Z,8.90
2018-12-15T00:23:59.242Z,8.80
2018-12-15T00:26:29.820Z,8.70
2018-12-15T00:29:00.171Z,8.80
2018-12-15T00:31:30.921Z,8.70
2018-12-15T00:34:01.599Z,8.70
2018-12-15T00:36:32.531Z,8.70
2018-12-15T00:39:03.237Z,8.60
2018-12-15T00:41:35.436Z,8.50
2018-12-15T00:44:06.301Z,8.40
2018-12-15T00:46:36.882Z,8.50
2018-12-15T00:49:07.300Z,8.50
2018-12-15T00:51:38.469Z,8.60
2018-12-15T00:54:09.077Z,8.40
2018-12-15T00:56:40.002Z,8.20
2018-12-15T00:59:10.773Z,8.20
2018-12-15T01:01:41.292Z,8.00
2018-12-15T01:04:12.101Z,7.90
2018-12-15T01:06:42.902Z,7.90
2018-12-15T01:09:14.049Z,8.00
2018-12-15T01:11:44.674Z,8.20
2018-12-15T01:14:15.246Z,8.10
2018-12-15T01:16:45.874Z,8.10
2018-12-15T01:19:16.552Z,8.10
2018-12-15T01:21:47.833Z,7.90
2018-12-15T01:24:18.414Z,7.90
2018-12-15T01:26:49.002Z,8.20
2018-12-15T01:29:19.815Z,8.20
2018-12-15T01:31:50.430Z,8.20
2018-12-15T01:34:21.093Z,8.20
2018-12-15T01:36:51.838Z,8.20
2018-12-15T01:39:22.978Z,8.10
2018-12-15T01:41:53.413Z,8.10
2018-12-15T01:44:25.230Z,8.00
2018-12-15T01:46:55.975Z,7.90
2018-12-15T01:49:26.599Z,7.80
2018-12-15T01:51:57.356Z,7.70
2018-12-15T01:54:28.005Z,7.70
2018-12-15T01:56:59.653Z,7.80
2018-12-15T01:59:30.538Z,7.90
2018-12-15T02:02:01.199Z,7.70
2018-12-15T02:04:31.923Z,7.60
2018-12-15T02:07:03.082Z,7.50
2018-12-15T02:09:33.828Z,7.50
2018-12-15T02:12:04.853Z,7.80
2018-12-15T02:14:35.469Z,8.00
2018-12-15T02:17:05.861Z,8.00
2018-12-15T02:19:36.382Z,7.90
2018-12-15T02:22:06.924Z,7.70
2018-12-15T02:24:37.682Z,7.70
2018-12-15T02:27:08.159Z,7.60
2018-12-15T02:29:39.016Z,7.60
2018-12-15T02:32:09.775Z,7.70
2018-12-15T02:34:40.360Z,7.90
2018-12-15T02:37:11.371Z,8.00
2018-12-15T02:39:41.902Z,8.00
2018-12-15T02:42:12.540Z,7.90
2018-12-15T02:44:43.123Z,7.70
2018-12-15T02:47:13.742Z,7.60
2018-12-15T02:49:44.221Z,7.50
2018-12-15T02:52:15.014Z,7.70
2018-12-15T02:54:45.698Z,7.90
2018-12-15T02:57:16.218Z,7.90
2018-12-15T02:59:46.768Z,7.90
2018-12-15T03:02:17.277Z,7.90
2018-12-15T03:04:47.736Z,7.70
2018-12-15T03:07:18.765Z,7.80
2018-12-15T03:09:49.484Z,7.70
2018-12-15T03:12:20.221Z,7.70
2018-12-15T03:14:50.897Z,7.80
2018-12-15T03:17:21.399Z,7.80
2018-12-15T03:19:52.026Z,7.80
2018-12-15T03:22:22.617Z,7.90
2018-12-15T03:24:52.954Z,8.00
2018-12-15T03:27:23.502Z,8.10
2018-12-15T03:29:54.166Z,8.30
2018-12-15T03:32:24.922Z,8.30
2018-12-15T03:34:55.614Z,8.30
2018-12-15T03:37:26.502Z,8.30
2018-12-15T03:39:57.417Z,8.20
2018-12-15T03:42:28.244Z,8.10
2018-12-15T03:44:58.672Z,8.00
2018-12-15T03:47:29.176Z,8.00
2018-12-15T03:49:59.651Z,8.00
2018-12-15T03:52:30.229Z,8.20
2018-12-15T03:55:00.647Z,8.00
2018-12-15T03:57:31.296Z,8.00
2018-12-15T04:00:01.954Z,7.90
2018-12-15T04:02:34.434Z,8.10
2018-12-15T04:05:05.194Z,8.40
2018-12-15T04:07:35.601Z,8.60
2018-12-15T04:10:06.810Z,8.60
2018-12-15T04:12:37.342Z,8.60
2018-12-15T04:15:07.791Z,8.60
2018-12-15T04:17:38.666Z,8.60
2018-12-15T04:20:09.276Z,8.60
2018-12-15T04:22:39.812Z,8.50
2018-12-15T04:25:10.690Z,8.40
2018-12-15T04:27:41.313Z,8.30
2018-12-15T04:30:14.489Z,8.40
2018-12-15T04:32:45.567Z,8.30
2018-12-15T04:35:16.400Z,8.40
2018-12-15T04:37:46.968Z,8.40
2018-12-15T04:40:17.854Z,8.50
2018-12-15T04:42:48.792Z,8.40
2018-12-15T04:45:19.348Z,8.30
2018-12-15T04:47:50.178Z,8.30
2018-12-15T04:50:21.014Z,8.30
2018-12-15T04:52:51.747Z,8.00
2018-12-15T04:55:22.469Z,7.90
2018-12-15T04:57:52.885Z,7.90
2018-12-15T05:00:23.525Z,7.90
2018-12-15T05:02:54.254Z,8.20
2018-12-15T05:05:24.919Z,8.30
2018-12-15T05:07:55.646Z,8.40
2018-12-15T05:10:26.511Z,8.40
2018-12-15T05:12:57.113Z,8.40
2018-12-15T05:15:27.909Z,8.40
2018-12-15T05:17:58.660Z,8.50
2018-12-15T05:20:29.641Z,8.60
2018-12-15T05:23:00.272Z,8.60
2018-12-15T05:25:31.119Z,8.60
2018-12-15T05:28:01.992Z,8.60
2018-12-15T05:30:32.846Z,8.60
2018-12-15T05:33:03.999Z,8.70
2018-12-15T05:35:34.959Z,8.70
2018-12-15T05:38:05.521Z,8.90
2018-12-15T05:40:36.230Z,9.00
2018-12-15T05:43:06.739Z,9.10
2018-12-15T05:45:37.522Z,9.20
2018-12-15T05:48:08.654Z,9.30
2018-12-15T05:50:40.747Z,9.30
2018-12-15T05:53:11.337Z,9.30
2018-12-15T05:55:41.978Z,9.40
2018-12-15T05:58:12.599Z,9.50
2018-12-15T06:00:43.366Z,9.50
2018-12-15T06:03:14.252Z,9.70
2018-12-15T06:05:46.000Z,9.80
2018-12-15T06:08:16.634Z,9.90
2018-12-15T06:10:47.637Z,9.90
2018-12-15T06:13:18.763Z,9.90
2018-12-15T06:15:49.453Z,9.90
2018-12-15T06:18:20.068Z,9.80
2018-12-15T06:20:50.632Z,9.60
2018-12-15T06:23:20.989Z,9.40
2018-12-15T06:25:51.538Z,9.30
2018-12-15T06:28:22.424Z,9.20
2018-12-15T06:30:53.125Z,9.30
2018-12-15T06:33:24.115Z,9.40
2018-12-15T06:35:54.947Z,9.50
2018-12-15T06:38:25.746Z,9.60
2018-12-15T06:40:56.423Z,9.70
2018-12-15T06:43:27.209Z,9.70
2018-12-15T06:45:58.139Z,9.70
2018-12-15T06:48:28.876Z,9.80
2018-12-15T06:51:00.093Z,9.80
2018-12-15T06:53:31.185Z,9.90
2018-12-15T06:56:01.821Z,10.00
2018-12-15T06:58:32.320Z,9.70
2018-12-15T07:01:02.995Z,9.60
2018-12-15T07:03:33.727Z,9.60
2018-12-15T07:06:04.466Z,9.80
2018-12-15T07:08:35.232Z,9.80
2018-12-15T07:11:05.971Z,9.80
2018-12-15T07:13:36.690Z,10.00
2018-12-15T07:16:07.387Z,10.10
2018-12-15T07:18:44.628Z,10.20
2018-12-15T07:21:11.232Z,10.30
2018-12-15T07:23:42.051Z,10.30
2018-12-15T07:26:12.818Z,10.50
2018-12-15T07:28:43.723Z,10.60
2018-12-15T07:31:14.511Z,10.60
2018-12-15T07:33:45.765Z,10.60
2018-12-15T07:36:16.653Z,10.70
2018-12-15T07:38:47.273Z,10.80
2018-12-15T07:41:17.674Z,10.90
2018-12-15T07:43:48.100Z,10.90
2018-12-15T07:46:18.871Z,11.10
2018-12-15T07:48:51.538Z,11.10
2018-12-15T07:51:22.147Z,11.20
2018-12-15T07:53:52.898Z,11.30
2018-12-15T07:56:27.462Z,11.30
2018-12-15T07:58:58.028Z,11.40
2018-12-15T08:01:29.180Z,11.50
2018-12-15T08:03:59.600Z,11.50
2018-12-15T08:06:30.278Z,11.70
2018-12-15T08:09:01.178Z,11.70
2018-12-15T08:11:38.533Z,11.70
2018-12-15T08:14:11.632Z,11.90
2018-12-15T08:16:42.058Z,12.00
2018-12-15T08:19:12.769Z,12.10
2018-12-15T08:21:43.283Z,12.30
2018-12-15T08:24:13.838Z,12.60
2018-12-15T08:26:44.448Z,12.80
2018-12-15T08:29:15.430Z,13.00
2018-12-15T08:31:46.198Z,12.90
2018-12-15T08:34:16.827Z,12.90
2018-12-15T08:36:47.455Z,12.80
2018-12-15T08:39:18.339Z,12.80
2018-12-15T08:41:49.045Z,13.00
2018-12-15T08:44:19.642Z,13.00
2018-12-15T08:46:50.315Z,13.30
2018-12-15T08:49:21.202Z,13.60
2018-12-15T08:51:52.457Z,13.90
2018-12-15T08:54:23.504Z,14.10
2018-12-15T08:56:54.160Z,14.20
2018-12-15T08:59:24.785Z,14.10
2018-12-15T09:01:55.535Z,14.10
2018-12-15T09:04:26.303Z,14.10
2018-12-15T09:06:56.774Z,14.30
2018-12-15T09:09:27.363Z,14.20
2018-12-15T09:11:58.375Z,14.10
2018-12-15T09:14:29.069Z,14.10
2018-12-15T09:16:59.591Z,14.20
2018-12-15T09:19:30.129Z,14.80
2018-12-15T09:22:00.901Z,15.50
2018-12-15T09:24:31.311Z,16.20
2018-12-15T09:27:01.882Z,16.60
2018-12-15T09:29:32.378Z,16.90
2018-12-15T09:32:02.934Z,17.10
2018-12-15T09:34:34.622Z,17.20
2018-12-15T09:37:05.254Z,17.60
2018-12-15T09:39:35.808Z,17.90
2018-12-15T09:42:06.917Z,17.90
2018-12-15T09:44:37.561Z,17.70
2018-12-15T09:47:08.659Z,17.60
2018-12-15T09:49:39.110Z,17.40
2018-12-15T09:52:10.117Z,17.30
2018-12-15T09:54:40.970Z,17.10
2018-12-15T09:57:11.820Z,16.90
2018-12-15T09:59:42.659Z,16.80
2018-12-15T10:02:13.387Z,16.80
2018-12-15T10:04:44.641Z,16.90
2018-12-15T10:07:15.657Z,17.00
2018-12-15T10:09:46.473Z,17.10
2018-12-15T10:12:17.056Z,17.30
2018-12-15T10:14:47.992Z,17.30
2018-12-15T10:17:19.169Z,17.40
2018-12-15T10:19:49.945Z,17.40
2018-12-15T10:22:20.682Z,17.60
2018-12-15T10:24:51.876Z,17.70
2018-12-15T10:27:22.869Z,17.70
2018-12-15T10:29:58.583Z,17.80
2018-12-15T10:32:34.155Z,17.80
2018-12-15T10:35:04.690Z,17.90
2018-12-15T10:37:35.345Z,17.90
2018-12-15T10:40:06.201Z,17.70
2018-12-15T10:42:37.072Z,17.60
2018-12-15T10:45:11.405Z,17.30
2018-12-15T10:47:46.924Z,17.20
2018-12-15T10:50:22.323Z,17.00
2018-12-15T10:52:55.034Z,16.90
2018-12-15T10:55:29.361Z,16.80
2018-12-15T10:58:02.889Z,16.80
2018-12-15T11:00:41.165Z,16.40
2018-12-15T11:03:14.384Z,16.20
2018-12-15T11:05:47.296Z,16.20
2018-12-15T11:08:19.657Z,16.10
2018-12-15T11:10:53.984Z,16.00
2018-12-15T11:13:27.138Z,16.00
2018-12-15T11:16:00.556Z,16.00
2018-12-15T11:18:33.205Z,15.80
2018-12-15T11:21:08.704Z,15.70
2018-12-15T11:23:42.179Z,15.70
2018-12-15T11:26:15.201Z,15.60
2018-12-15T11:28:50.482Z,15.40
2018-12-15T11:31:24.282Z,15.30
2018-12-15T11:33:58.285Z,15.50
2018-12-15T11:36:30.300Z,15.90
2018-12-15T11:39:02.460Z,16.00
2018-12-15T11:41:34.561Z,16.10
2018-12-15T11:44:06.477Z,16.10
2018-12-15T11:46:37.649Z,16.10
2018-12-15T11:49:11.526Z,15.90
2018-12-15T11:51:43.959Z,15.80
2018-12-15T11:54:27.410Z,15.70
2018-12-15T11:57:00.418Z,15.60
2018-12-15T11:59:31.959Z,15.40
2018-12-15T12:02:03.997Z,15.30
2018-12-15T12:04:35.324Z,15.30
2018-12-15T12:07:07.970Z,15.40
2018-12-15T12:09:41.690Z,15.40
2018-12-15T12:12:13.790Z,15.50
2018-12-15T12:14:45.565Z,15.50
2018-12-15T12:17:17.571Z,15.60
2018-12-15T12:19:50.288Z,15.80
2018-12-15T12:22:22.976Z,15.80
2018-12-15T12:24:54.446Z,15.80
2018-12-15T12:27:27.324Z,15.70
2018-12-15T12:29:58.885Z,15.50
2018-12-15T12:32:30.312Z,15.30
2018-12-15T12:35:02.693Z,15.20
2018-12-15T12:37:34.269Z,15.20
2018-12-15T12:40:06.784Z,15.20
2018-12-15T12:42:39.577Z,15.10
2018-12-15T12:45:11.377Z,15.10
2018-12-15T12:47:43.806Z,15.10
2018-12-15T12:50:16.660Z,15.30
2018-12-15T12:52:49.363Z,15.30
2018-12-15T12:55:21.786Z,15.30
2018-12-15T12:57:54.369Z,15.40
2018-12-15T13:00:27.599Z,15.40
2018-12-15T13:02:59.707Z,15.30
2018-12-15T13:05:31.925Z,15.30
2018-12-15T13:08:05.494Z,15.20
2018-12-15T13:10:37.813Z,15.10
2018-12-15T13:13:09.435Z,15.20
2018-12-15T13:15:41.190Z,15.20
2018-12-15T13:18:12.911Z,15.10
2018-12-15T13:20:45.035Z,15.10
2018-12-15T13:23:15.811Z,15.10
2018-12-15T13:25:47.752Z,15.00
2018-12-15T13:28:23.691Z,14.70
2018-12-15T13:31:01.602Z,14.60
2018-12-15T13:33:35.640Z,14.40
2018-12-15T13:36:17.937Z,14.30
2018-12-15T13:38:49.143Z,14.20
2018-12-15T13:41:20.382Z,14.10
2018-12-15T13:43:51.624Z,14.00
2018-12-15T13:46:22.442Z,13.90
2018-12-15T13:48:53.146Z,13.90
2018-12-15T13:51:24.423Z,13.90
2018-12-15T13:53:57.058Z,13.90
2018-12-15T13:56:33.569Z,13.80
2018-12-15T13:59:03.954Z,13.70
2018-12-15T14:01:34.793Z,13.60
2018-12-15T14:04:05.523Z,13.50
2018-12-15T14:06:36.080Z,13.40
2018-12-15T14:09:09.138Z,13.40
2018-12-15T14:11:39.781Z,13.30
2018-12-15T14:14:10.332Z,13.30
2018-12-15T14:16:40.974Z,13.40
2018-12-15T14:19:11.779Z,13.50
2018-12-15T14:21:42.571Z,13.40
2018-12-15T14:24:13.180Z,13.40
2018-12-15T14:26:43.541Z,13.30
2018-12-15T14:29:14.248Z,13.30
2018-12-15T14:31:44.894Z,13.20
2018-12-15T14:34:15.684Z,13.20
2018-12-15T14:36:47.021Z,13.20
2018-12-15T14:39:18.210Z,13.30
2018-12-15T14:41:49.038Z,13.10
2018-12-15T14:44:21.453Z,12.90
2018-12-15T14:46:52.787Z,12.80
2018-12-15T14:49:25.388Z,12.60
2018-12-15T14:51:56.229Z,12.60
2018-12-15T14:54:26.901Z,12.50
2018-12-15T14:56:57.591Z,12.40
2018-12-15T14:59:28.351Z,12.30
2018-12-15T15:02:00.610Z,12.40
2018-12-15T15:04:31.979Z,12.00
2018-12-15T15:07:02.631Z,12.30
2018-12-15T15:09:33.116Z,12.50
2018-12-15T15:12:03.859Z,12.70
2018-12-15T15:14:34.263Z,12.70
2018-12-15T15:17:05.260Z,12.80
2018-12-15T15:19:36.363Z,12.90
2018-12-15T15:22:07.470Z,12.90
2018-12-15T15:24:38.170Z,12.90
2018-12-15T15:27:10.489Z,12.80
2018-12-15T15:29:41.189Z,12.60
2018-12-15T15:32:11.814Z,12.40
2018-12-15T15:34:43.549Z,12.30
2018-12-15T15:37:14.327Z,12.40
2018-12-15T15:39:45.251Z,12.40
2018-12-15T15:42:16.098Z,12.30
2018-12-15T15:44:47.171Z,12.40
2018-12-15T15:47:17.763Z,12.20
2018-12-15T15:49:48.731Z,12.10
2018-12-15T15:52:20.486Z,12.10
2018-12-15T15:54:51.502Z,12.00
2018-12-15T15:57:21.958Z,11.90
2018-12-15T15:59:52.635Z,11.90
2018-12-15T16:02:23.180Z,12.00
2018-12-15T16:04:54.444Z,12.00
2018-12-15T16:07:25.077Z,12.00
2018-12-15T16:09:55.898Z,11.90
2018-12-15T16:12:26.724Z,11.80
2018-12-15T16:14:57.462Z,11.80
2018-12-15T16:17:28.101Z,11.70
2018-12-15T16:19:58.845Z,11.80
2018-12-15T16:22:29.298Z,11.80
2018-12-15T16:25:00.027Z,11.80
2018-12-15T16:27:30.954Z,11.90
2018-12-15T16:30:01.424Z,12.00
2018-12-15T16:32:32.324Z,12.30
2018-12-15T16:35:03.334Z,12.50
2018-12-15T16:37:33.970Z,12.80
2018-12-15T16:40:05.078Z,12.80
2018-12-15T16:42:35.758Z,13.10
2018-12-15T16:45:08.741Z,13.30
2018-12-15T16:47:39.443Z,13.40
2018-12-15T16:50:13.497Z,13.40
2018-12-15T16:52:47.491Z,13.40
2018-12-15T16:55:18.321Z,13.40
2018-12-15T16:57:49.571Z,13.30
2018-12-15T17:00:20.885Z,13.20
2018-12-15T17:02:51.728Z,13.10
2018-12-15T17:05:22.759Z,13.00
2018-12-15T17:07:53.544Z,13.20
2018-12-15T17:10:24.234Z,13.30
2018-12-15T17:12:55.099Z,13.40
2018-12-15T17:15:25.749Z,13.40
2018-12-15T17:17:56.394Z,13.30
2018-12-15T17:20:28.459Z,13.40
2018-12-15T17:22:59.374Z,13.30
2018-12-15T17:25:29.885Z,13.30
2018-12-15T17:28:00.638Z,13.30
2018-12-15T17:30:31.474Z,13.30
2018-12-15T17:33:02.064Z,13.30
2018-12-15T17:35:34.406Z,13.30
2018-12-15T17:38:04.960Z,13.40
2018-12-15T17:40:35.975Z,13.40
2018-12-15T17:43:06.554Z,13.40
2018-12-15T17:45:40.428Z,13.40
2018-12-15T17:48:12.173Z,13.40
2018-12-15T17:50:42.931Z,13.50
2018-12-15T17:53:15.702Z,13.50
2018-12-15T17:55:46.389Z,13.50
2018-12-15T17:58:17.242Z,13.60
2018-12-15T18:00:48.626Z,13.60
2018-12-15T18:03:19.281Z,13.50
2018-12-15T18:05:50.178Z,13.50
2018-12-15T18:08:23.682Z,13.50
2018-12-15T18:10:57.413Z,13.50
2018-12-15T18:13:28.389Z,13.50
2018-12-15T18:15:59.074Z,13.50
2018-12-15T18:18:29.889Z,13.50
2018-12-15T18:21:00.678Z,13.40
2018-12-15T18:23:31.391Z,13.30
2018-12-15T18:26:02.129Z,13.20
2018-12-15T18:28:32.820Z,13.20
2018-12-15T18:31:03.627Z,13.30
2018-12-15T18:33:37.034Z,13.30
2018-12-15T18:36:08.489Z,13.20
2018-12-15T18:38:39.785Z,13.10
2018-12-15T18:41:10.645Z,12.70
2018-12-15T18:43:41.447Z,12.50
2018-12-15T18:46:12.546Z,12.30
2018-12-15T18:48:43.241Z,12.20
2018-12-15T18:51:16.489Z,12.10
2018-12-15T18:53:46.509Z,12.00
2018-12-15T18:56:17.299Z,12.00
2018-12-15T18:58:47.972Z,12.50
2018-12-15T19:01:19.038Z,12.70
2018-12-15T19:03:50.167Z,12.80
2018-12-15T19:06:20.769Z,13.00
2018-12-15T19:08:51.550Z,13.10
2018-12-15T19:11:22.441Z,13.10
2018-12-15T19:13:52.993Z,13.00
2018-12-15T19:16:23.669Z,12.90
2018-12-15T19:18:54.479Z,13.00
2018-12-15T19:21:24.936Z,13.10
2018-12-15T19:23:55.998Z,13.10
2018-12-15T19:26:26.673Z,13.10
2018-12-15T19:28:57.391Z,13.20
2018-12-15T19:31:28.017Z,13.20
2018-12-15T19:33:58.761Z,13.10
2018-12-15T19:36:29.981Z,13.20
2018-12-15T19:39:02.631Z,13.10
2018-12-15T19:41:35.371Z,13.10
2018-12-15T19:44:08.034Z,13.10
2018-12-15T19:46:38.930Z,13.00
2018-12-15T19:49:09.628Z,13.00
2018-12-15T19:51:40.660Z,12.90
2018-12-15T19:54:11.293Z,12.90
2018-12-15T19:56:42.066Z,13.00
2018-12-15T19:59:15.349Z,12.90
2018-12-15T20:01:46.044Z,12.80
2018-12-15T20:04:17.111Z,12.90
2018-12-15T20:06:49.236Z,12.80
2018-12-15T20:09:20.149Z,12.70
2018-12-15T20:11:50.662Z,12.70
2018-12-15T20:14:21.591Z,12.70
2018-12-15T20:16:52.610Z,12.70
2018-12-15T20:19:23.325Z,12.70
2018-12-15T20:21:53.903Z,12.70
2018-12-15T20:24:24.470Z,12.70
2018-12-15T20:26:55.022Z,12.70
2018-12-15T20:29:25.713Z,12.60
2018-12-15T20:31:56.479Z,12.60
2018-12-15T20:34:27.162Z,12.50
2018-12-15T20:36:57.708Z,12.40
2018-12-15T20:39:28.350Z,12.20
2018-12-15T20:41:58.926Z,12.10
2018-12-15T20:44:29.968Z,12.20
2018-12-15T20:47:00.608Z,12.00
2018-12-15T20:49:31.539Z,11.80
2018-12-15T20:52:02.159Z,11.70
2018-12-15T20:54:32.711Z,11.60
2018-12-15T20:57:03.922Z,11.50
2018-12-15T20:59:34.617Z,11.60
2018-12-15T21:02:05.256Z,11.60
2018-12-15T21:04:37.573Z,11.60
2018-12-15T21:07:08.805Z,11.60
2018-12-15T21:09:39.235Z,11.50
2018-12-15T21:12:10.691Z,11.40
2018-12-15T21:14:42.787Z,11.30
2018-12-15T21:17:13.899Z,11.20
2018-12-15T21:19:47.827Z,11.10
2018-12-15T21:22:17.279Z,11.00
2018-12-15T21:24:48.454Z,11.00
2018-12-15T21:27:18.992Z,10.90
2018-12-15T21:29:49.381Z,11.00
2018-12-15T21:32:20.042Z,11.20
2018-12-15T21:34:50.809Z,11.50
2018-12-15T21:37:21.393Z,11.70
2018-12-15T21:39:51.945Z,11.90
2018-12-15T21:42:22.747Z,12.00
2018-12-15T21:44:53.443Z,12.10
2018-12-15T21:47:24.621Z,12.10
2018-12-15T21:49:55.551Z,12.10
2018-12-15T21:52:26.249Z,11.80
2018-12-15T21:54:57.631Z,11.60
2018-12-15T21:57:28.221Z,11.50
2018-12-15T21:59:58.619Z,11.50
2018-12-15T22:02:29.105Z,11.40
2018-12-15T22:05:00.075Z,11.30
2018-12-15T22:07:30.863Z,11.50
2018-12-15T22:10:01.768Z,11.50
2018-12-15T22:12:32.517Z,11.50
2018-12-15T22:15:03.272Z,11.60
2018-12-15T22:17:34.137Z,11.70
2018-12-15T22:20:05.444Z,11.80
2018-12-15T22:22:36.159Z,11.80
2018-12-15T22:25:06.915Z,11.70
2018-12-15T22:27:37.835Z,11.60
2018-12-15T22:30:09.999Z,11.50
2018-12-15T22:32:40.525Z,11.30
2018-12-15T22:35:12.122Z,11.10
2018-12-15T22:37:42.682Z,11.10
2018-12-15T22:40:13.577Z,11.00
2018-12-15T22:42:44.359Z,11.10
2018-12-15T22:45:15.123Z,11.30
2018-12-15T22:47:45.915Z,11.70
2018-12-15T22:50:16.538Z,11.90
2018-12-15T22:52:47.306Z,12.00
2018-12-15T22:55:18.285Z,11.90
2018-12-15T22:57:49.002Z,11.80
2018-12-15T23:00:19.752Z,11.70
2018-12-15T23:02:52.406Z,11.50
2018-12-15T23:05:23.113Z,11.20
2018-12-15T23:07:53.432Z,11.00
2018-12-15T23:10:24.160Z,10.90
2018-12-15T23:12:54.802Z,10.80
2018-12-15T23:15:25.774Z,10.70
2018-12-15T23:17:56.299Z,10.70
2018-12-15T23:20:26.943Z,10.60
2018-12-15T23:22:57.797Z,10.70
2018-12-15T23:25:28.438Z,10.70
2018-12-15T23:27:59.971Z,10.70
2018-12-15T23:30:31.319Z,10.90
2018-12-15T23:33:02.109Z,11.10
2018-12-15T23:35:32.890Z,11.20
2018-12-15T23:38:04.062Z,11.20
2018-12-15T23:40:34.731Z,11.10
2018-12-15T23:43:05.641Z,11.00
2018-12-15T23:45:36.612Z,10.80
2018-12-15T23:48:07.480Z,10.70
2018-12-15T23:50:39.399Z,10.60
2018-12-15T23:53:10.187Z,10.50
2018-12-15T23:55:40.771Z,10.50
2018-12-15T23:58:11.650Z,10.50
